createdAt,value
2019-05-09T14:23:51.339Z,100535.22
2019-05-09T14:26:14.176Z,100541.83
2019-05-09T14:28:49.023Z,100553.06
2019-05-09T14:31:21.217Z,100556.25
2019-05-09T14:33:54.037Z,100567.91
2019-05-09T14:36:27.767Z,100574.25
2019-05-09T14:39:09.238Z,100584.45
2019-05-09T14:41:41.952Z,100589.16
2019-05-09T14:44:18.209Z,100589.90
2019-05-09T14:46:50.882Z,100598.53
2019-05-09T14:49:23.407Z,100605.82
2019-05-09T14:52:02.049Z,100609.02
2019-05-09T14:54:34.813Z,100618.52
2019-05-09T14:57:09.814Z,100618.66
2019-05-09T14:59:44.925Z,100621.80
2019-05-09T15:02:18.210Z,100623.18
2019-05-09T15:04:50.851Z,100621.75
2019-05-09T15:07:23.912Z,100626.59
2019-05-09T15:09:59.724Z,100625.51
2019-05-09T15:12:31.408Z,100624.60
2019-05-09T15:15:07.958Z,100628.70
2019-05-09T15:17:40.613Z,100633.52
2019-05-09T15:20:13.462Z,100636.22
2019-05-09T15:22:52.805Z,100635.04
2019-05-09T15:25:31.997Z,100634.13
2019-05-09T15:28:04.455Z,100630.69
2019-05-09T15:30:38.577Z,100633.45
2019-05-09T15:33:10.708Z,100630.17
2019-05-09T15:35:43.208Z,100632.20
2019-05-09T15:38:18.281Z,100637.03
2019-05-09T15:40:51.831Z,100634.27
2019-05-09T15:43:38.241Z,100632.69
2019-05-09T15:46:12.402Z,100631.85
2019-05-09T15:49:03.212Z,100642.90
2019-05-09T15:51:38.604Z,100635.70
2019-05-09T15:54:11.567Z,100633.59
2019-05-09T15:56:53.425Z,100628.23
2019-05-09T15:59:38.976Z,100628.06
2019-05-09T16:02:18.941Z,100628.06
2019-05-09T16:04:58.676Z,100633.98
2019-05-09T16:07:28.595Z,100638.19
2019-05-09T16:10:08.721Z,100631.22
2019-05-09T16:12:41.787Z,100630.04
2019-05-09T16:15:14.511Z,100623.31
2019-05-09T16:17:48.466Z,100622.93
2019-05-09T16:20:36.855Z,100626.25
2019-05-09T16:23:08.406Z,100617.27
2019-05-09T16:25:54.456Z,100622.70
2019-05-09T16:28:27.334Z,100618.09
2019-05-09T16:31:01.054Z,100622.11
2019-05-09T16:33:41.125Z,100621.50
2019-05-09T16:36:13.233Z,100619.51
2019-05-09T16:38:48.793Z,100614.80
2019-05-09T16:41:20.795Z,100621.84
2019-05-09T16:43:54.480Z,100618.27
2019-05-09T16:46:30.791Z,100609.75
2019-05-09T16:49:05.795Z,100610.36
2019-05-09T16:51:45.122Z,100600.66
2019-05-09T16:54:22.702Z,100603.03
2019-05-09T16:57:01.656Z,100604.50
2019-05-09T16:59:35.625Z,100598.45
2019-05-09T17:02:18.963Z,100592.41
2019-05-09T17:04:43.169Z,100589.39
2019-05-09T17:07:18.074Z,100586.80
2019-05-09T17:09:58.158Z,100583.78
2019-05-09T17:12:38.017Z,100581.41
2019-05-09T17:15:17.962Z,100581.36
2019-05-09T17:17:54.353Z,100571.95
2019-05-09T17:20:35.316Z,100577.66
2019-05-09T17:23:13.707Z,100573.38
2019-05-09T17:25:42.057Z,100569.79
2019-05-09T17:28:17.751Z,100575.45
2019-05-09T17:30:50.128Z,100572.56
2019-05-09T17:33:28.702Z,100568.11
2019-05-09T17:36:01.598Z,100570.23
2019-05-09T17:38:34.268Z,100569.27
2019-05-09T17:41:08.244Z,100564.96
2019-05-09T17:43:42.025Z,100554.38
2019-05-09T17:46:19.182Z,100559.27
2019-05-09T17:48:52.206Z,100559.48
2019-05-09T17:51:34.039Z,100549.20
2019-05-09T17:54:03.214Z,100547.69
2019-05-09T17:56:43.189Z,100540.31
2019-05-09T17:59:18.151Z,100536.55
2019-05-09T18:01:53.025Z,100534.32
2019-05-09T18:04:28.490Z,100537.30
2019-05-09T18:07:00.569Z,100534.66
2019-05-09T18:09:33.448Z,100529.92
2019-05-09T18:12:12.848Z,100527.41
2019-05-09T18:14:47.636Z,100525.13
2019-05-09T18:17:19.755Z,100524.66
2019-05-09T18:19:53.453Z,100523.87
2019-05-09T18:22:26.543Z,100518.25
2019-05-09T18:24:59.508Z,100516.08
2019-05-09T18:27:37.953Z,100515.95
2019-05-09T18:30:11.962Z,100513.10
2019-05-09T18:32:47.645Z,100511.00
2019-05-09T18:35:22.034Z,100507.39
2019-05-09T18:37:58.871Z,100511.91
2019-05-09T18:40:33.009Z,100502.11
2019-05-09T18:43:07.717Z,100499.66
2019-05-09T18:45:40.249Z,100503.05
2019-05-09T18:48:13.089Z,100498.00
2019-05-09T18:50:45.874Z,100504.00
2019-05-09T18:53:18.785Z,100494.38
2019-05-09T18:55:51.448Z,100489.71
2019-05-09T18:58:24.359Z,100489.02
2019-05-09T19:00:57.557Z,100479.10
2019-05-09T19:03:30.041Z,100483.25
2019-05-09T19:06:09.944Z,100471.41
2019-05-09T19:08:42.827Z,100468.84
2019-05-09T19:11:19.623Z,100465.66
2019-05-09T19:13:52.360Z,100475.18
2019-05-09T19:16:27.672Z,100468.49
2019-05-09T19:19:01.362Z,100461.39
2019-05-09T19:21:36.144Z,100458.19
2019-05-09T19:24:09.554Z,100455.40
2019-05-09T19:26:42.388Z,100452.98
2019-05-09T19:29:21.740Z,100452.95
2019-05-09T19:32:01.878Z,100460.23
2019-05-09T19:34:34.297Z,100459.73
2019-05-09T19:37:07.243Z,100454.69
2019-05-09T19:39:39.929Z,100456.53
2019-05-09T19:42:15.665Z,100463.97
2019-05-09T19:44:48.296Z,100458.11
2019-05-09T19:47:21.299Z,100459.80
2019-05-09T19:49:53.977Z,100459.67
2019-05-09T19:52:37.719Z,100464.32
2019-05-09T19:55:00.961Z,100464.85
2019-05-09T19:57:33.923Z,100456.75
2019-05-09T20:00:08.625Z,100454.63
2019-05-09T20:02:47.839Z,100455.38
2019-05-09T20:05:20.348Z,100451.23
2019-05-09T20:07:59.080Z,100458.20
2019-05-09T20:10:33.163Z,100463.28
2019-05-09T20:13:08.105Z,100463.13
2019-05-09T20:15:41.333Z,100470.06
2019-05-09T20:18:14.128Z,100468.77
2019-05-09T20:20:46.577Z,100466.61
2019-05-09T20:23:27.875Z,100471.45
2019-05-09T20:26:00.704Z,100470.28
2019-05-09T20:28:52.066Z,100470.28
2019-05-09T20:31:30.803Z,100469.69
2019-05-09T20:34:04.316Z,100471.76
2019-05-09T20:36:36.649Z,100476.92
2019-05-09T20:39:09.702Z,100482.29
2019-05-09T20:41:42.333Z,100479.88
2019-05-09T20:44:14.673Z,100477.12
2019-05-09T20:46:48.543Z,100482.85
2019-05-09T20:49:22.085Z,100477.73
2019-05-09T20:51:54.679Z,100481.47
2019-05-09T20:54:28.210Z,100478.20
2019-05-09T20:57:12.847Z,100485.55
2019-05-09T20:59:46.775Z,100482.44
2019-05-09T21:02:25.680Z,100485.45
2019-05-09T21:04:59.290Z,100489.03
2019-05-09T21:07:36.582Z,100488.27
2019-05-09T21:10:09.769Z,100487.17
2019-05-09T21:12:42.260Z,100488.95
2019-05-09T21:15:15.541Z,100490.08
2019-05-09T21:17:48.271Z,100488.22
2019-05-09T21:20:21.694Z,100496.91
2019-05-09T21:22:54.598Z,100505.58
2019-05-09T21:25:32.782Z,100501.39
2019-05-09T21:28:04.403Z,100500.33
2019-05-09T21:30:40.695Z,100505.37
2019-05-09T21:33:13.731Z,100499.55
2019-05-09T21:35:46.196Z,100502.52
2019-05-09T21:38:18.775Z,100506.14
2019-05-09T21:40:52.077Z,100505.91
2019-05-09T21:43:25.625Z,100515.70
2019-05-09T21:45:58.038Z,100516.09
2019-05-09T21:48:33.640Z,100520.19
2019-05-09T21:51:05.931Z,100529.16
2019-05-09T21:53:41.203Z,100533.00
2019-05-09T21:56:13.098Z,100532.83
2019-05-09T21:58:45.897Z,100546.13
2019-05-09T22:01:20.569Z,100548.06
2019-05-09T22:03:53.814Z,100545.05
2019-05-09T22:06:26.865Z,100543.73
2019-05-09T22:09:05.997Z,100544.15
2019-05-09T22:11:40.247Z,100547.41
2019-05-09T22:14:12.932Z,100557.84
2019-05-09T22:16:45.204Z,100556.05
2019-05-09T22:19:18.060Z,100557.48
2019-05-09T22:21:51.538Z,100563.28
2019-05-09T22:24:24.116Z,100567.02
2019-05-09T22:26:56.870Z,100569.56
2019-05-09T22:29:37.747Z,100574.81
2019-05-09T22:32:10.219Z,100567.00
2019-05-09T22:34:43.176Z,100571.63
2019-05-09T22:37:15.376Z,100580.48
2019-05-09T22:39:47.713Z,100587.38
2019-05-09T22:42:20.983Z,100595.27
